createdAt,value
2017-12-05T00:00:04.469Z,96278.64
2017-12-05T00:02:32.584Z,96288.77
2017-12-05T00:05:00.936Z,96288.29
2017-12-05T00:07:29.327Z,96292.41
2017-12-05T00:09:57.678Z,96284.23
2017-12-05T00:12:26.031Z,96285.53
2017-12-05T00:14:55.176Z,96286.06
2017-12-05T00:17:23.527Z,96282.33
2017-12-05T00:19:52.072Z,96276.03
2017-12-05T00:22:20.415Z,96275.20
2017-12-05T00:24:48.767Z,96271.61
2017-12-05T00:27:17.118Z,96269.27
2017-12-05T00:29:45.492Z,96266.94
2017-12-05T00:32:13.864Z,96275.55
2017-12-05T00:34:42.208Z,96276.93
2017-12-05T00:37:10.603Z,96254.80
2017-12-05T00:39:38.950Z,96271.55
2017-12-05T00:42:07.300Z,96276.47
2017-12-05T00:44:35.677Z,96276.78
2017-12-05T00:47:04.023Z,96265.71
2017-12-05T00:49:32.411Z,96258.56
2017-12-05T00:52:00.768Z,96265.83
2017-12-05T00:54:29.110Z,96267.80
2017-12-05T00:56:57.455Z,96260.44
2017-12-05T00:59:25.848Z,96267.49
2017-12-05T01:01:54.202Z,96271.86
2017-12-05T01:04:22.550Z,96272.36
2017-12-05T01:06:50.962Z,96274.29
2017-12-05T01:09:19.310Z,96265.00
2017-12-05T01:11:47.655Z,96273.54
2017-12-05T01:14:16.006Z,96276.30
2017-12-05T01:16:44.355Z,96277.58
2017-12-05T01:19:12.728Z,96275.94
2017-12-05T01:21:41.110Z,96286.53
2017-12-05T01:24:09.455Z,96293.91
2017-12-05T01:26:37.851Z,96287.23
2017-12-05T01:29:06.208Z,96287.81
2017-12-05T01:31:34.558Z,96287.47
2017-12-05T01:34:02.948Z,96295.25
2017-12-05T01:36:31.307Z,96295.98
2017-12-05T01:38:59.658Z,96296.65
2017-12-05T01:41:28.015Z,96291.20
2017-12-05T01:43:56.358Z,96297.69
2017-12-05T01:46:24.736Z,96299.97
2017-12-05T01:48:53.107Z,96287.82
2017-12-05T01:51:21.459Z,96278.84
2017-12-05T01:53:49.809Z,96284.98
2017-12-05T01:56:18.161Z,96283.56
2017-12-05T01:58:46.503Z,96282.23
2017-12-05T02:01:14.886Z,96277.23
2017-12-05T02:03:43.240Z,96287.44
2017-12-05T02:06:11.608Z,96283.39
2017-12-05T02:08:39.985Z,96288.56
2017-12-05T02:11:08.359Z,96280.55
2017-12-05T02:13:36.699Z,96288.73
2017-12-05T02:16:05.050Z,96284.62
2017-12-05T02:18:33.439Z,96295.23
2017-12-05T02:21:01.793Z,96292.97
2017-12-05T02:23:30.143Z,96292.68
2017-12-05T02:25:58.486Z,96292.53
2017-12-05T02:28:26.839Z,96294.21
2017-12-05T02:30:55.238Z,96291.89
2017-12-05T02:33:23.824Z,96291.56
2017-12-05T02:35:52.172Z,96284.80
2017-12-05T02:38:20.536Z,96296.44
2017-12-05T02:41:00.627Z,96293.48
2017-12-05T02:43:28.986Z,96278.98
2017-12-05T02:45:57.351Z,96284.45
2017-12-05T02:48:25.702Z,96285.09
2017-12-05T02:50:54.067Z,96288.57
2017-12-05T02:53:22.415Z,96286.19
2017-12-05T02:55:50.897Z,96282.49
2017-12-05T02:58:19.565Z,96290.05
2017-12-05T03:00:48.247Z,96271.99
2017-12-05T03:03:16.930Z,96277.36
2017-12-05T03:05:45.408Z,96265.94
2017-12-05T03:08:13.758Z,96278.64
2017-12-05T03:10:42.143Z,96285.14
2017-12-05T03:13:10.483Z,96274.45
2017-12-05T03:15:38.834Z,96277.59
2017-12-05T03:18:07.211Z,96288.44
2017-12-05T03:20:35.574Z,96282.75
2017-12-05T03:23:03.965Z,96278.80
2017-12-05T03:25:32.348Z,96277.91
2017-12-05T03:28:00.702Z,96288.20
2017-12-05T03:30:29.051Z,96274.45
2017-12-05T03:32:57.406Z,96277.59
2017-12-05T03:35:25.779Z,96269.06
2017-12-05T03:37:54.159Z,96280.45
2017-12-05T03:40:22.521Z,96277.27
2017-12-05T03:42:50.886Z,96285.53
2017-12-05T03:45:19.215Z,96277.75
2017-12-05T03:47:47.566Z,96278.38
2017-12-05T03:50:16.046Z,96281.35
2017-12-05T03:52:44.443Z,96282.97
2017-12-05T03:55:12.803Z,96280.78
2017-12-05T03:57:41.139Z,96277.09
2017-12-05T04:00:30.924Z,96279.53
2017-12-05T04:02:59.275Z,96282.14
2017-12-05T04:05:27.651Z,96282.15
2017-12-05T04:07:56.076Z,96272.54
2017-12-05T04:10:24.420Z,96278.69
2017-12-05T04:12:52.815Z,96280.27
2017-12-05T04:15:21.180Z,96281.07
2017-12-05T04:17:49.530Z,96270.20
2017-12-05T04:20:17.905Z,96281.50
2017-12-05T04:22:46.259Z,96270.48
2017-12-05T04:25:14.620Z,96285.53
2017-12-05T04:27:43.007Z,96287.01
2017-12-05T04:30:11.395Z,96276.97
2017-12-05T04:32:39.743Z,96284.33
2017-12-05T04:35:08.095Z,96273.66
2017-12-05T04:37:36.527Z,96280.13
2017-12-05T04:40:04.899Z,96282.88
2017-12-05T04:42:33.276Z,96280.55
2017-12-05T04:45:01.795Z,96286.79
2017-12-05T04:47:30.147Z,96292.66
2017-12-05T04:49:58.505Z,96283.19
2017-12-05T04:52:27.755Z,96290.08
2017-12-05T04:54:56.114Z,96291.70
2017-12-05T04:57:24.480Z,96288.36
2017-12-05T04:59:52.869Z,96282.60
2017-12-05T05:02:21.229Z,96276.86
2017-12-05T05:04:49.616Z,96284.37
2017-12-05T05:07:17.981Z,96275.03
2017-12-05T05:09:46.323Z,96279.84
2017-12-05T05:12:14.710Z,96285.27
2017-12-05T05:14:43.082Z,96277.27
2017-12-05T05:17:11.474Z,96273.30
2017-12-05T05:19:40.658Z,96269.55
2017-12-05T05:22:09.006Z,96265.15
2017-12-05T05:24:37.405Z,96263.18
2017-12-05T05:27:05.760Z,96275.67
2017-12-05T05:29:34.117Z,96269.61
2017-12-05T05:32:02.494Z,96270.03
2017-12-05T05:34:30.841Z,96276.13
2017-12-05T05:36:59.196Z,96275.83
2017-12-05T05:39:27.570Z,96277.79
2017-12-05T05:41:55.919Z,96283.77
2017-12-05T05:44:24.319Z,96283.13
2017-12-05T05:46:52.668Z,96279.51
2017-12-05T05:49:21.030Z,96273.29
2017-12-05T05:51:49.579Z,96279.64
2017-12-05T05:54:17.932Z,96278.25
2017-12-05T05:56:46.270Z,96283.42
2017-12-05T05:59:14.655Z,96285.00
2017-12-05T06:01:43.014Z,96283.32
2017-12-05T06:04:11.403Z,96281.12
2017-12-05T06:06:39.774Z,96277.42
2017-12-05T06:09:08.152Z,96289.93
2017-12-05T06:11:36.502Z,96286.84
2017-12-05T06:14:04.846Z,96285.75
2017-12-05T06:16:36.248Z,96291.31
2017-12-05T06:19:04.593Z,96293.27
2017-12-05T06:21:33.227Z,96296.95
2017-12-05T06:24:01.606Z,96291.55
2017-12-05T06:26:31.379Z,96294.88
2017-12-05T06:28:59.806Z,96292.42
2017-12-05T06:31:29.333Z,96299.53
2017-12-05T06:34:01.031Z,96304.63
2017-12-05T06:36:30.366Z,96304.63
2017-12-05T06:38:58.741Z,96301.16
2017-12-05T06:41:29.804Z,96311.43
2017-12-05T06:43:58.178Z,96313.72
2017-12-05T06:46:26.591Z,96316.12
2017-12-05T06:48:55.965Z,96309.67
2017-12-05T06:51:24.321Z,96308.14
2017-12-05T06:53:52.680Z,96317.17
2017-12-05T06:56:21.027Z,96312.08
2017-12-05T06:58:49.442Z,96319.34
2017-12-05T07:01:17.783Z,96320.23
2017-12-05T07:03:46.125Z,96323.25
2017-12-05T07:06:14.475Z,96334.56
2017-12-05T07:08:42.814Z,96329.89
2017-12-05T07:11:11.180Z,96324.78
2017-12-05T07:13:40.598Z,96327.36
2017-12-05T07:16:08.972Z,96329.03
2017-12-05T07:18:37.329Z,96327.61
2017-12-05T07:21:05.671Z,96330.28
2017-12-05T07:23:34.015Z,96332.75
2017-12-05T07:26:02.367Z,96327.26
2017-12-05T07:28:30.743Z,96327.81
2017-12-05T07:30:59.088Z,96320.79
2017-12-05T07:33:27.451Z,96335.37
2017-12-05T07:35:55.810Z,96333.66
2017-12-05T07:38:24.151Z,96341.37
2017-12-05T07:40:52.556Z,96340.09
2017-12-05T07:43:20.903Z,96336.73
2017-12-05T07:45:49.239Z,96335.98
2017-12-05T07:48:17.582Z,96335.36
2017-12-05T07:50:45.932Z,96334.55
2017-12-05T07:53:14.330Z,96337.43
2017-12-05T07:55:42.688Z,96327.77
2017-12-05T07:58:11.035Z,96332.16
2017-12-05T08:00:39.388Z,96334.91
2017-12-05T08:03:07.728Z,96327.55
2017-12-05T08:05:36.212Z,96330.92
2017-12-05T08:08:04.555Z,96326.98
2017-12-05T08:10:32.896Z,96329.31
2017-12-05T08:13:01.247Z,96337.40
2017-12-05T08:15:29.585Z,96335.08
2017-12-05T08:17:57.966Z,96344.64
2017-12-05T08:20:26.307Z,96342.02
2017-12-05T08:22:54.655Z,96342.86
2017-12-05T08:25:22.999Z,96334.27
2017-12-05T08:27:51.339Z,96341.86
2017-12-05T08:30:19.727Z,96348.75
2017-12-05T08:32:48.067Z,96350.03
2017-12-05T08:35:16.417Z,96353.30
2017-12-05T08:37:44.767Z,96348.20
2017-12-05T08:40:13.131Z,96348.60
2017-12-05T08:42:41.487Z,96352.70
2017-12-05T08:45:09.827Z,96354.47
2017-12-05T08:47:38.199Z,96352.02
2017-12-05T08:50:06.547Z,96356.41
2017-12-05T08:52:34.890Z,96351.76
2017-12-05T08:55:03.246Z,96355.84
2017-12-05T08:57:31.621Z,96355.48
2017-12-05T08:59:59.959Z,96350.86
2017-12-05T09:02:28.315Z,96348.88
2017-12-05T09:04:56.687Z,96350.61
2017-12-05T09:07:25.032Z,96357.54
2017-12-05T09:09:53.375Z,96364.98
2017-12-05T09:12:21.758Z,96360.36
2017-12-05T09:14:50.105Z,96356.53
2017-12-05T09:17:18.442Z,96359.27
2017-12-05T09:19:46.788Z,96355.84
2017-12-05T09:22:15.125Z,96362.10
2017-12-05T09:24:43.520Z,96358.64
2017-12-05T09:27:11.856Z,96364.73
2017-12-05T09:29:40.208Z,96372.25
2017-12-05T09:32:08.540Z,96365.22
2017-12-05T09:34:36.895Z,96366.78
2017-12-05T09:37:05.252Z,96368.32
2017-12-05T09:39:33.592Z,96359.16
2017-12-05T09:42:01.959Z,96361.88
2017-12-05T09:44:30.312Z,96362.47
2017-12-05T09:46:58.671Z,96366.26
2017-12-05T09:49:27.017Z,96364.95
2017-12-05T09:51:55.418Z,96371.09
2017-12-05T09:54:23.769Z,96370.45
2017-12-05T09:56:52.120Z,96364.13
2017-12-05T09:59:20.466Z,96370.34
2017-12-05T10:01:48.823Z,96373.72
2017-12-05T10:04:17.179Z,96368.25
2017-12-05T10:06:45.539Z,96356.47
2017-12-05T10:09:13.901Z,96360.04
2017-12-05T10:11:42.276Z,96355.95
2017-12-05T10:14:10.619Z,96358.97
2017-12-05T10:16:38.963Z,96355.72
2017-12-05T10:19:07.317Z,96347.95
2017-12-05T10:21:35.660Z,96356.24
2017-12-05T10:24:04.036Z,96346.11
2017-12-05T10:26:32.384Z,96354.44
2017-12-05T10:29:00.747Z,96344.34
2017-12-05T10:31:29.092Z,96352.72
2017-12-05T10:33:57.440Z,96357.34
2017-12-05T10:36:25.779Z,96350.13
2017-12-05T10:38:54.139Z,96356.33
2017-12-05T10:41:22.501Z,96347.83
2017-12-05T10:43:50.865Z,96343.06
2017-12-05T10:46:19.205Z,96354.30
2017-12-05T10:48:47.568Z,96350.13
2017-12-05T10:51:15.959Z,96347.80
2017-12-05T10:53:44.323Z,96346.92
2017-12-05T10:56:12.680Z,96343.52
2017-12-05T10:58:41.080Z,96347.45
2017-12-05T11:01:09.423Z,96348.00
2017-12-05T11:03:37.784Z,96350.87
2017-12-05T11:06:06.152Z,96348.08
2017-12-05T11:08:34.500Z,96359.81
2017-12-05T11:11:02.854Z,96356.30
2017-12-05T11:13:31.211Z,96355.37
2017-12-05T11:15:59.568Z,96357.81
2017-12-05T11:18:27.916Z,96357.56
2017-12-05T11:20:56.280Z,96354.50
2017-12-05T11:23:24.627Z,96352.02
2017-12-05T11:25:52.979Z,96352.84
2017-12-05T11:28:21.325Z,96338.59
2017-12-05T11:30:49.749Z,96347.91
2017-12-05T11:33:18.056Z,96332.73
2017-12-05T11:35:46.435Z,96339.16
2017-12-05T11:38:14.770Z,96325.67
2017-12-05T11:40:43.142Z,96332.78
2017-12-05T11:43:11.500Z,96323.81
2017-12-05T11:45:39.849Z,96333.04
2017-12-05T11:48:08.240Z,96325.41
2017-12-05T11:50:36.593Z,96319.64
2017-12-05T11:53:04.936Z,96320.63
2017-12-05T11:55:33.332Z,96319.55
2017-12-05T11:58:01.683Z,96318.22
2017-12-05T12:00:30.036Z,96313.02
2017-12-05T12:02:58.420Z,96311.11
2017-12-05T12:05:26.800Z,96319.66
2017-12-05T12:07:55.138Z,96315.48
2017-12-05T12:10:23.491Z,96301.43
2017-12-05T12:12:51.844Z,96307.45
2017-12-05T12:15:20.256Z,96310.86
2017-12-05T12:17:48.664Z,96307.53
2017-12-05T12:20:17.058Z,96308.25
2017-12-05T12:22:46.603Z,96306.51
2017-12-05T12:25:14.980Z,96306.45
2017-12-05T12:27:43.369Z,96308.47
2017-12-05T12:30:11.805Z,96305.59
2017-12-05T12:32:40.168Z,96312.94
2017-12-05T12:35:08.539Z,96310.17
2017-12-05T12:37:36.974Z,96303.63
2017-12-05T12:40:05.315Z,96302.23
2017-12-05T12:42:33.823Z,96306.43
2017-12-05T12:45:02.178Z,96307.28
2017-12-05T12:47:30.519Z,96306.03
2017-12-05T12:49:58.877Z,96304.59
2017-12-05T12:52:27.273Z,96307.08
2017-12-05T12:54:55.619Z,96296.28
2017-12-05T12:57:23.974Z,96295.51
2017-12-05T12:59:52.347Z,96289.36
2017-12-05T13:02:20.700Z,96284.08
2017-12-05T13:04:49.047Z,96284.64
2017-12-05T13:07:17.432Z,96283.49
2017-12-05T13:09:45.782Z,96282.80
2017-12-05T13:12:14.167Z,96277.78
2017-12-05T13:14:42.543Z,96282.58
2017-12-05T13:17:10.883Z,96291.77
2017-12-05T13:19:39.235Z,96278.12
2017-12-05T13:22:07.589Z,96278.55
2017-12-05T13:24:35.956Z,96276.80
2017-12-05T13:27:04.354Z,96278.84
2017-12-05T13:29:32.699Z,96271.23
2017-12-05T13:32:01.043Z,96267.13
2017-12-05T13:34:29.391Z,96270.75
2017-12-05T13:36:57.740Z,96270.40
2017-12-05T13:39:26.114Z,96268.13
2017-12-05T13:41:54.467Z,96270.28
2017-12-05T13:44:22.820Z,96267.31
2017-12-05T13:46:51.174Z,96274.03
2017-12-05T13:49:19.558Z,96272.69
2017-12-05T13:51:47.903Z,96271.36
2017-12-05T13:54:16.248Z,96268.59
2017-12-05T13:56:44.600Z,96272.08
2017-12-05T13:59:12.957Z,96279.52
2017-12-05T14:01:41.349Z,96283.88
2017-12-05T14:04:09.740Z,96271.98
2017-12-05T14:06:38.090Z,96265.73
2017-12-05T14:09:06.439Z,96266.28
2017-12-05T14:11:34.788Z,96275.70
2017-12-05T14:14:03.170Z,96274.95
2017-12-05T14:16:31.520Z,96261.69
2017-12-05T14:18:59.928Z,96266.41
2017-12-05T14:21:28.277Z,96261.44
2017-12-05T14:23:56.683Z,96272.70
2017-12-05T14:26:25.026Z,96263.35
2017-12-05T14:28:53.399Z,96264.81
2017-12-05T14:31:21.776Z,96265.04
2017-12-05T14:33:50.131Z,96270.35
2017-12-05T14:36:18.474Z,96262.67
2017-12-05T14:38:46.828Z,96268.19
2017-12-05T14:41:15.207Z,96264.32
2017-12-05T14:43:43.579Z,96266.80
2017-12-05T14:46:11.941Z,96269.38
2017-12-05T14:48:40.331Z,96271.14
2017-12-05T14:51:08.681Z,96267.86
2017-12-05T14:53:37.036Z,96265.83
2017-12-05T14:56:05.427Z,96265.22
2017-12-05T14:58:33.773Z,96266.02
2017-12-05T15:01:02.147Z,96275.17
2017-12-05T15:03:30.511Z,96265.23
2017-12-05T15:05:58.865Z,96273.11
2017-12-05T15:08:27.217Z,96276.59
2017-12-05T15:10:55.556Z,96270.30
2017-12-05T15:13:23.944Z,96275.05
2017-12-05T15:15:52.289Z,96273.39
2017-12-05T15:18:20.952Z,96268.34
2017-12-05T15:23:45.049Z,96263.90
2017-12-05T15:26:13.431Z,96273.19
2017-12-05T15:28:41.792Z,96259.45
2017-12-05T15:31:10.147Z,96274.95
2017-12-05T15:33:38.506Z,96279.63
2017-12-05T15:36:06.986Z,96280.38
2017-12-05T15:38:35.327Z,96276.79
2017-12-05T15:41:03.675Z,96291.22
2017-12-05T15:43:32.036Z,96275.80
2017-12-05T15:46:00.397Z,96293.30
2017-12-05T15:48:28.749Z,96302.95
2017-12-05T15:50:57.208Z,96285.23
2017-12-05T15:53:25.580Z,96281.09
2017-12-05T15:55:53.924Z,96288.59
2017-12-05T15:58:22.271Z,96288.33
2017-12-05T16:00:50.619Z,96281.69
2017-12-05T16:03:18.992Z,96275.44
2017-12-05T16:05:47.375Z,96268.12
2017-12-05T16:08:15.728Z,96283.32
2017-12-05T16:10:44.111Z,96278.80
2017-12-05T16:13:12.455Z,96276.63
2017-12-05T16:15:40.800Z,96270.81
2017-12-05T16:18:09.151Z,96277.83
2017-12-05T16:20:37.499Z,96285.30
2017-12-05T16:23:05.900Z,96291.78
2017-12-05T16:25:34.293Z,96289.90
2017-12-05T16:28:02.636Z,96285.38
2017-12-05T16:30:30.987Z,96303.74
2017-12-05T16:32:59.365Z,96293.30
2017-12-05T16:35:27.717Z,96298.69
2017-12-05T16:37:56.111Z,96305.05
2017-12-05T16:40:24.587Z,96304.78
2017-12-05T16:42:52.947Z,96302.75
2017-12-05T16:45:21.298Z,96305.07
2017-12-05T16:47:49.743Z,96298.30
2017-12-05T16:50:18.093Z,96294.83
2017-12-05T16:52:46.459Z,96305.31
2017-12-05T16:55:14.835Z,96306.61
2017-12-05T16:57:43.183Z,96305.74
2017-12-05T17:00:11.566Z,96303.28
2017-12-05T17:02:39.911Z,96306.27
2017-12-05T17:05:08.261Z,96302.91
2017-12-05T17:07:37.048Z,96300.61
2017-12-05T17:10:05.395Z,96310.72
2017-12-05T17:12:33.743Z,96314.30
2017-12-05T17:15:02.087Z,96303.89
2017-12-05T17:17:30.495Z,96310.75
2017-12-05T17:19:58.852Z,96305.83
2017-12-05T17:22:27.206Z,96306.98
2017-12-05T17:24:55.555Z,96306.52
2017-12-05T17:27:23.904Z,96300.30
2017-12-05T17:29:52.337Z,96301.38
2017-12-05T17:32:20.699Z,96309.33
2017-12-05T17:34:49.073Z,96303.13
2017-12-05T17:37:17.419Z,96300.57
2017-12-05T17:39:45.771Z,96303.80
2017-12-05T17:42:14.171Z,96304.27
2017-12-05T17:44:42.518Z,96298.61
2017-12-05T17:47:10.903Z,96296.97
2017-12-05T17:49:39.246Z,96311.67
2017-12-05T17:52:07.604Z,96297.60
2017-12-05T17:54:35.985Z,96302.27
2017-12-05T17:57:04.343Z,96305.23
2017-12-05T17:59:32.762Z,96301.70
2017-12-05T18:02:01.112Z,96298.22
2017-12-05T18:04:29.460Z,96291.90
2017-12-05T18:06:57.892Z,96297.92
2017-12-05T18:09:26.240Z,96296.91
2017-12-05T18:11:54.591Z,96295.73
2017-12-05T18:14:22.975Z,96307.26
2017-12-05T18:16:51.331Z,96300.70
2017-12-05T18:19:19.675Z,96305.09
2017-12-05T18:21:48.019Z,96299.34
2017-12-05T18:24:16.368Z,96296.33
2017-12-05T18:26:44.810Z,96297.84
2017-12-05T18:29:13.131Z,96294.70
2017-12-05T18:31:41.483Z,96294.97
2017-12-05T18:34:09.851Z,96291.16
2017-12-05T18:36:38.187Z,96302.73
2017-12-05T18:39:06.564Z,96296.73
2017-12-05T18:41:34.910Z,96298.28
2017-12-05T18:44:04.221Z,96297.53
2017-12-05T18:46:32.569Z,96294.23
2017-12-05T18:49:00.967Z,96298.18
2017-12-05T18:51:29.355Z,96300.66
2017-12-05T18:53:57.706Z,96300.41
2017-12-05T18:56:26.143Z,96296.25
2017-12-05T18:58:54.524Z,96302.51
2017-12-05T19:01:22.875Z,96300.92
2017-12-05T19:03:51.271Z,96296.67
2017-12-05T19:06:19.628Z,96288.84
2017-12-05T19:08:47.976Z,96291.40
2017-12-05T19:11:16.804Z,96292.30
2017-12-05T19:13:45.215Z,96288.60
2017-12-05T19:16:13.587Z,96288.08
2017-12-05T19:18:41.936Z,96297.44
2017-12-05T19:21:10.292Z,96284.55
2017-12-05T19:23:38.647Z,96290.22
2017-12-05T19:26:07.003Z,96282.39
2017-12-05T19:28:35.404Z,96287.42
2017-12-05T19:31:03.750Z,96287.03
2017-12-05T19:33:32.182Z,96286.94
2017-12-05T19:36:00.555Z,96292.86
2017-12-05T19:38:28.909Z,96298.27
2017-12-05T19:40:57.296Z,96294.11
2017-12-05T19:43:26.483Z,96290.37
2017-12-05T19:45:54.829Z,96288.05
2017-12-05T19:48:23.187Z,96290.65
2017-12-05T19:50:51.566Z,96290.17
2017-12-05T19:53:19.994Z,96290.90
2017-12-05T19:55:48.399Z,96286.61
2017-12-05T19:58:16.779Z,96285.05
2017-12-05T20:00:45.160Z,96276.36
2017-12-05T20:03:13.529Z,96272.27
2017-12-05T20:05:41.937Z,96274.70
2017-12-05T20:08:10.311Z,96259.86
2017-12-05T20:10:39.622Z,96267.67
2017-12-05T20:13:07.968Z,96264.42
2017-12-05T20:15:36.407Z,96262.83
2017-12-05T20:18:04.771Z,96265.94
2017-12-05T20:20:33.121Z,96264.05
2017-12-05T20:23:01.465Z,96266.33
2017-12-05T20:25:29.939Z,96262.95
2017-12-05T20:27:58.428Z,96278.69
2017-12-05T20:30:26.791Z,96275.53
2017-12-05T20:32:55.142Z,96269.23
2017-12-05T20:35:23.503Z,96272.16
2017-12-05T20:37:51.976Z,96269.92
2017-12-05T20:40:20.450Z,96275.16
2017-12-05T20:42:48.832Z,96278.36
2017-12-05T20:45:17.195Z,96275.28
2017-12-05T20:47:45.562Z,96267.20
2017-12-05T20:50:13.673Z,96271.00
2017-12-05T20:52:41.747Z,96265.01
2017-12-05T20:55:14.719Z,96264.99
2017-12-05T20:57:42.817Z,96256.95
2017-12-05T21:00:10.883Z,96266.64
2017-12-05T21:02:38.952Z,96266.79
2017-12-05T21:05:07.022Z,96268.19
2017-12-05T21:07:35.115Z,96265.73
2017-12-05T21:10:03.313Z,96257.47
2017-12-05T21:12:31.375Z,96259.31
2017-12-05T21:14:59.448Z,96253.50
2017-12-05T21:17:27.578Z,96249.69
2017-12-05T21:19:55.709Z,96263.80
2017-12-05T21:22:23.779Z,96265.79
2017-12-05T21:24:51.852Z,96254.34
2017-12-05T21:27:20.325Z,96251.70
2017-12-05T21:29:48.423Z,96240.98
2017-12-05T21:32:16.707Z,96232.12
2017-12-05T21:34:44.773Z,96235.77
2017-12-05T21:37:12.851Z,96226.94
2017-12-05T21:39:40.960Z,96236.34
2017-12-05T21:42:09.076Z,96231.23
2017-12-05T21:44:37.141Z,96241.97
2017-12-05T21:47:05.207Z,96242.17
2017-12-05T21:49:33.272Z,96240.64
2017-12-05T21:52:01.339Z,96243.41
2017-12-05T21:54:29.619Z,96246.64
2017-12-05T21:56:57.675Z,96243.77
2017-12-05T21:59:25.747Z,96239.88
2017-12-05T22:01:53.843Z,96245.02
2017-12-05T22:04:21.927Z,96245.11
2017-12-05T22:06:49.994Z,96252.39
2017-12-05T22:09:18.500Z,96255.83
2017-12-05T22:11:46.868Z,96244.30
2017-12-05T22:14:15.219Z,96238.27
2017-12-05T22:16:43.591Z,96242.47
2017-12-05T22:19:11.932Z,96242.85
2017-12-05T22:21:40.327Z,96244.88
2017-12-05T22:24:08.672Z,96250.04
2017-12-05T22:26:37.052Z,96241.11
2017-12-05T22:29:05.429Z,96245.03
2017-12-05T22:31:33.776Z,96239.74
2017-12-05T22:34:08.074Z,96239.42
2017-12-05T22:36:36.427Z,96243.93
2017-12-05T22:39:04.810Z,96230.69
2017-12-05T22:41:33.169Z,96233.67
2017-12-05T22:44:01.511Z,96236.06
2017-12-05T22:46:29.859Z,96234.05
2017-12-05T22:48:58.334Z,96237.16
2017-12-05T22:51:26.683Z,96240.58
2017-12-05T22:53:55.040Z,96247.34
2017-12-05T22:56:23.422Z,96248.68
2017-12-05T22:58:51.786Z,96238.70
2017-12-05T23:01:20.184Z,96239.77
2017-12-05T23:03:48.551Z,96238.48
2017-12-05T23:06:16.900Z,96236.37
2017-12-05T23:08:45.260Z,96239.70
2017-12-05T23:11:13.639Z,96240.47
2017-12-05T23:13:42.025Z,96236.52
2017-12-05T23:16:10.395Z,96235.53
2017-12-05T23:18:38.784Z,96231.21
2017-12-05T23:21:07.151Z,96236.75
2017-12-05T23:23:35.519Z,96236.48
2017-12-05T23:26:03.907Z,96231.05
2017-12-05T23:28:32.267Z,96234.38
2017-12-05T23:31:00.676Z,96226.69
2017-12-05T23:33:29.038Z,96227.89
2017-12-05T23:35:57.527Z,96223.08
2017-12-05T23:38:25.865Z,96220.83
2017-12-05T23:40:54.244Z,96225.80
2017-12-05T23:43:22.600Z,96229.85
2017-12-05T23:45:50.959Z,96225.17
2017-12-05T23:48:19.344Z,96216.58
2017-12-05T23:50:47.691Z,96232.00
2017-12-05T23:53:16.198Z,96233.58
2017-12-05T23:55:44.588Z,96223.56
2017-12-05T23:58:12.939Z,96208.06
